Etusivu
METAR-TAF:

METAR-TAF

Lentoasemat :

Storm Lake Municipal Airport

Storm Lake, Iowa, Yhdysvallat

Leveyspiiri: 42-36N, Pituuspiiri: 095-14W, korkeus merenpinnasta: 454 m

Tämänhetkinen sää

Tämä raportti tehtiin 18 minuuttia sitten, kello 08.55 UTC
Tuuli 19 kn etelästä/lounaasta
Lämpötila 0°C
Kosteus 100%
Ilmanpaine 1012 hPa
Näkyvyys: 4.8 km
Pilvistä 800 ft:n korkeudessa
heikkoa lumisadetta

METAR: KSLB 220855Z AUTO 20019KT 3SM -SN OVC008 00/00 A2988 RMK AO2

Aika: 03:13 (09:13 UTC)


TAF: puuttuu

Säähavainnot ja -ennusteet yli 4000 lentoasemalta (METAR- ja TAF-raportit).

Käytössä olevat sääasemat on merkitty karttaan keltaisilla ja punaisilla pisteillä.

Aseta hiiri pisteen päälle nähdäksesi sääaseman nimen.

Klikkaa sitten nähdäksesi säähavainnot ja -ennusteet.

Kartan vaihtaminen: klikkaa mustalla rastilla varustettuja vihreitä pisteitä, niin voit zoomata sisään; viivalla varustettua vihreää pistettä, niin voit zoomata ulos tai vihreitä nuolia, niin pääset viereisille kartoille.


METAR-TAF: